Time;durP1;ratioP1;P1;durP2;ratioP2;P2;SDS_P1;SDS_P2;PMS_P1;PMS_P2;Temp;Humidity;BMP_temperature;BMP_pressure;BME280_temperature;BME280_humidity;BME280_pressure;Samples;Min_cycle;Max_cycle;Signal;HPM_P1;HPM_P2
2022/05/16 00:02:13;;;;;;;;;;;20.00;81.90;;;;;;5117464;28;19908;-90
2022/05/16 00:04:40;;;;;;;;;;;20.00;81.60;;;;;;5117163;28;19914;-90
2022/05/16 00:07:05;;;;;;;;;;;20.00;82.00;;;;;;5117104;28;19943;-90
2022/05/16 00:09:31;;;;;;;;;;;20.00;82.00;;;;;;5117048;28;19915;-90
2022/05/16 00:11:57;;;;;;;;;;;19.90;82.40;;;;;;5117338;28;19926;-89
2022/05/16 00:14:23;;;;;;;;;;;19.80;83.10;;;;;;5116933;28;19979;-90
2022/05/16 00:16:48;;;;;;;;;;;19.70;83.30;;;;;;5116902;28;19915;-90
2022/05/16 00:19:14;;;;;;;;;;;19.60;84.00;;;;;;5116644;28;19962;-90
2022/05/16 00:21:39;;;;;;;;;;;19.50;84.40;;;;;;5116871;28;19912;-90
2022/05/16 00:24:05;;;;;;;;;;;19.40;85.40;;;;;;5117018;28;20006;-90
2022/05/16 00:26:31;;;;;;;;;;;19.40;85.40;;;;;;5116793;28;19961;-89
2022/05/16 00:28:56;;;;;;;;;;;19.40;85.40;;;;;;5116966;28;19912;-90
2022/05/16 00:31:22;;;;;;;;;;;19.40;85.40;;;;;;5116641;28;19908;-90
2022/05/16 00:33:47;;;;;;;;;;;19.30;85.10;;;;;;5116529;28;19907;-91
2022/05/16 00:36:13;;;;;;;;;;;19.30;84.90;;;;;;5116782;28;19922;-90
2022/05/16 00:38:38;;;;;;;;;;;19.40;84.50;;;;;;5116453;28;19919;-90
2022/05/16 00:41:04;;;;;;;;;;;19.40;84.20;;;;;;5116444;28;19907;-90
2022/05/16 00:43:42;;;;;;;;;;;19.40;84.20;;;;;;5116335;28;19915;-91
2022/05/16 00:46:08;;;;;;;;;;;19.30;84.20;;;;;;5116317;28;19914;-90
2022/05/16 00:48:33;;;;;;;;;;;19.30;84.60;;;;;;5116514;28;20276;-90
2022/05/16 00:50:59;;;;;;;;;;;19.30;84.90;;;;;;5115708;28;20366;-90
2022/05/16 00:53:25;;;;;;;;;;;19.20;84.90;;;;;;5116177;28;19949;-90
2022/05/16 00:55:51;;;;;;;;;;;19.10;85.30;;;;;;5116065;28;19908;-90
2022/05/16 00:58:17;;;;;;;;;;;19.00;85.70;;;;;;5115997;28;19915;-90
2022/05/16 01:00:43;;;;;;;;;;;19.00;86.30;;;;;;5116304;28;19915;-90
2022/05/16 01:05:59;;;;;;;;;;;18.90;86.20;;;;;;5116307;28;19915;-90
2022/05/16 01:08:26;;;;;;;;;;;18.70;87.30;;;;;;5115907;28;19908;-90
2022/05/16 01:10:53;;;;;;;;;;;18.70;87.60;;;;;;5115863;28;19914;-90
2022/05/16 01:13:22;;;;;;;;;;;18.80;87.60;;;;;;5115769;28;19946;-90
2022/05/16 01:15:49;;;;;;;;;;;18.80;87.50;;;;;;5115737;28;19943;-90
2022/05/16 01:18:16;;;;;;;;;;;18.90;88.20;;;;;;5115432;28;19938;-90
2022/05/16 01:20:47;;;;;;;;;;;18.90;88.40;;;;;;5115702;28;19928;-91
2022/05/16 01:23:14;;;;;;;;;;;19.00;88.00;;;;;;5115540;28;19914;-90
2022/05/16 01:25:40;;;;;;;;;;;19.00;87.60;;;;;;5115528;28;19912;-90
2022/05/16 01:28:06;;;;;;;;;;;19.00;87.50;;;;;;5115520;28;19925;-90
2022/05/16 01:30:34;;;;;;;;;;;19.00;87.60;;;;;;5115505;28;19938;-90
2022/05/16 01:33:00;;;;;;;;;;;19.00;87.70;;;;;;5115360;28;19926;-90
2022/05/16 01:35:27;;;;;;;;;;;19.00;87.30;;;;;;5114135;28;19908;-90
2022/05/16 01:40:37;;;;;;;;;;;19.00;86.60;;;;;;5115281;28;20283;-91
2022/05/16 01:43:03;;;;;;;;;;;19.00;86.60;;;;;;5115191;28;20352;-90
2022/05/16 01:45:28;;;;;;;;;;;19.00;86.80;;;;;;5115205;28;19994;-91
2022/05/16 01:47:54;;;;;;;;;;;19.10;86.90;;;;;;5115251;28;19915;-90
2022/05/16 01:50:19;;;;;;;;;;;19.10;86.60;;;;;;5115076;28;20034;-90
2022/05/16 01:52:45;;;;;;;;;;;19.20;86.50;;;;;;5115039;28;19908;-90
2022/05/16 01:55:11;;;;;;;;;;;19.30;86.20;;;;;;5115007;28;19981;-90
2022/05/16 01:57:40;;;;;;;;;;;19.30;86.30;;;;;;5114895;28;19911;-90
2022/05/16 02:00:09;;;;;;;;;;;19.30;86.30;;;;;;5114857;28;20360;-91
2022/05/16 02:02:35;;;;;;;;;;;19.30;86.50;;;;;;5114090;28;20074;-90
2022/05/16 02:05:00;;;;;;;;;;;19.30;86.80;;;;;;5114767;28;20033;-90
2022/05/16 02:07:27;;;;;;;;;;;19.30;86.30;;;;;;5114792;28;19912;-90
2022/05/16 02:09:53;;;;;;;;;;;19.40;86.20;;;;;;5114700;28;19908;-91
2022/05/16 02:12:19;;;;;;;;;;;19.50;85.20;;;;;;5114702;28;19915;-90
2022/05/16 02:14:44;;;;;;;;;;;19.60;84.80;;;;;;5114606;28;19908;-90
2022/05/16 02:17:10;;;;;;;;;;;19.60;85.00;;;;;;5114569;28;19919;-90
2022/05/16 02:19:35;;;;;;;;;;;19.60;84.80;;;;;;5114318;28;19946;-91
2022/05/16 02:24:45;;;;;;;;;;;19.60;84.80;;;;;;5114385;28;19914;-91
2022/05/16 02:27:12;;;;;;;;;;;19.60;85.60;;;;;;5114383;28;20284;-90
2022/05/16 02:29:37;;;;;;;;;;;19.50;85.80;;;;;;5114597;28;19915;-90
2022/05/16 02:32:04;;;;;;;;;;;19.40;86.10;;;;;;5114236;28;19945;-90
2022/05/16 02:34:30;;;;;;;;;;;19.40;86.40;;;;;;5114136;28;20006;-90
2022/05/16 02:36:55;;;;;;;;;;;19.40;86.20;;;;;;5114257;28;19962;-90
2022/05/16 02:39:21;;;;;;;;;;;19.50;86.00;;;;;;5114086;28;19918;-90
2022/05/16 02:41:47;;;;;;;;;;;19.50;86.00;;;;;;5114152;28;20045;-90
2022/05/16 02:44:13;;;;;;;;;;;19.50;86.10;;;;;;5114104;28;19943;-91
2022/05/16 02:46:39;;;;;;;;;;;19.50;86.10;;;;;;5114024;28;20006;-91
2022/05/16 02:49:05;;;;;;;;;;;19.40;86.10;;;;;;5114265;28;19973;-90
2022/05/16 02:51:31;;;;;;;;;;;19.40;86.10;;;;;;5113943;28;20360;-91
2022/05/16 02:53:56;;;;;;;;;;;19.30;86.50;;;;;;5113886;28;19926;-90
2022/05/16 02:56:22;;;;;;;;;;;19.30;86.90;;;;;;5114232;28;19947;-91
2022/05/16 02:58:47;;;;;;;;;;;19.20;87.30;;;;;;5113853;28;19946;-90
2022/05/16 03:01:14;;;;;;;;;;;19.10;87.60;;;;;;5113815;28;19908;-91
2022/05/16 03:03:40;;;;;;;;;;;19.00;87.50;;;;;;5113818;28;19915;-91
2022/05/16 03:06:05;;;;;;;;;;;19.10;87.20;;;;;;5113727;28;19908;-91
2022/05/16 03:08:31;;;;;;;;;;;19.00;86.50;;;;;;5112561;28;19984;-90
2022/05/16 03:10:57;;;;;;;;;;;19.00;86.00;;;;;;5113712;28;19923;-91
2022/05/16 03:13:23;;;;;;;;;;;19.00;85.90;;;;;;5113751;28;19915;-90
2022/05/16 03:15:49;;;;;;;;;;;19.00;86.00;;;;;;5113555;28;19918;-91
2022/05/16 03:18:15;;;;;;;;;;;18.90;86.10;;;;;;5113404;28;19955;-91
2022/05/16 03:20:40;;;;;;;;;;;18.90;86.00;;;;;;5113698;28;19950;-91
2022/05/16 03:23:06;;;;;;;;;;;18.90;85.70;;;;;;5113821;28;19912;-90
2022/05/16 03:25:32;;;;;;;;;;;18.90;85.30;;;;;;5113964;28;19999;-91
2022/05/16 03:27:57;;;;;;;;;;;18.90;85.00;;;;;;5113656;28;19918;-90
2022/05/16 03:30:23;;;;;;;;;;;18.90;84.90;;;;;;5113616;28;19980;-90
2022/05/16 03:32:49;;;;;;;;;;;18.90;84.90;;;;;;5113434;28;19912;-90
2022/05/16 03:35:14;;;;;;;;;;;18.90;84.80;;;;;;5113568;28;19932;-91
2022/05/16 03:37:40;;;;;;;;;;;18.90;84.90;;;;;;5113485;28;19922;-91
2022/05/16 03:42:50;;;;;;;;;;;18.80;85.20;;;;;;5113117;28;19982;-91
2022/05/16 03:45:16;;;;;;;;;;;18.80;85.10;;;;;;5113529;28;20305;-91
2022/05/16 03:47:42;;;;;;;;;;;18.70;85.00;;;;;;5113044;28;19935;-91
2022/05/16 03:50:07;;;;;;;;;;;18.70;84.70;;;;;;5113346;28;19918;-91
2022/05/16 03:52:33;;;;;;;;;;;18.60;84.60;;;;;;5113336;28;20349;-91
2022/05/16 03:54:59;;;;;;;;;;;18.60;84.50;;;;;;5113291;28;19935;-91
2022/05/16 03:57:24;;;;;;;;;;;18.80;84.70;;;;;;5113111;28;19999;-90
2022/05/16 03:59:50;;;;;;;;;;;18.80;84.30;;;;;;5113533;28;19919;-90
2022/05/16 04:02:15;;;;;;;;;;;18.80;84.00;;;;;;5113236;28;19923;-91
2022/05/16 04:04:41;;;;;;;;;;;18.80;84.00;;;;;;5111878;28;19979;-91
2022/05/16 04:07:07;;;;;;;;;;;18.80;84.10;;;;;;5113191;28;19986;-90
2022/05/16 04:09:32;;;;;;;;;;;18.90;84.20;;;;;;5112961;28;19928;-91
2022/05/16 04:11:58;;;;;;;;;;;18.80;84.20;;;;;;5113133;28;19935;-91
2022/05/16 04:14:23;;;;;;;;;;;18.80;84.20;;;;;;5113109;28;19926;-90
2022/05/16 04:16:49;;;;;;;;;;;18.80;84.00;;;;;;5113149;28;19966;-91
2022/05/16 04:19:15;;;;;;;;;;;18.80;84.20;;;;;;5112826;28;19976;-91
2022/05/16 04:21:41;;;;;;;;;;;18.80;84.30;;;;;;5113081;28;20368;-90
2022/05/16 04:24:06;;;;;;;;;;;18.90;84.40;;;;;;5112955;28;20072;-91
2022/05/16 04:26:32;;;;;;;;;;;18.90;83.70;;;;;;5115031;28;19922;-91
2022/05/16 04:28:58;;;;;;;;;;;19.00;83.40;;;;;;5117063;28;19994;-91
2022/05/16 04:31:24;;;;;;;;;;;19.10;83.00;;;;;;5116681;28;20019;-91
2022/05/16 04:33:50;;;;;;;;;;;19.20;82.70;;;;;;5116576;28;19915;-90
2022/05/16 04:36:15;;;;;;;;;;;19.20;83.40;;;;;;5116620;28;20273;-91
2022/05/16 04:38:41;;;;;;;;;;;19.30;84.30;;;;;;5116473;28;20354;-90
2022/05/16 04:45:21;;;;;;;;;;;19.10;84.40;;;;;;5111097;27;20262;-91
2022/05/16 04:48:43;;;;;;;;;;;19.00;85.60;;;;;;5111099;27;20310;-90
2022/05/16 04:52:00;;;;;;;;;;;19.00;85.90;;;;;;5111141;27;20313;-91
2022/05/16 04:54:27;;;;;;;;;;;19.00;84.60;;;;;;5111091;28;19919;-91
2022/05/16 04:56:53;;;;;;;;;;;19.10;84.00;;;;;;5110525;28;19944;-91
2022/05/16 04:59:19;;;;;;;;;;;19.20;83.60;;;;;;5110373;28;19928;-91
2022/05/16 05:01:45;;;;;;;;;;;19.30;83.40;;;;;;5110343;28;19952;-91
2022/05/16 05:04:11;;;;;;;;;;;19.40;83.00;;;;;;5109383;28;20339;-91
2022/05/16 05:06:36;;;;;;;;;;;19.50;82.80;;;;;;5109549;28;20495;-91
2022/05/16 05:09:02;;;;;;;;;;;19.60;82.40;;;;;;5111136;28;19950;-91
2022/05/16 05:16:56;;;;;;;;;;;19.80;81.60;;;;;;5109868;28;20002;-91
2022/05/16 05:19:22;;;;;;;;;;;19.90;81.30;;;;;;5110241;28;19955;-91
2022/05/16 05:21:47;;;;;;;;;;;20.00;81.00;;;;;;5109849;28;19912;-91
2022/05/16 05:24:13;;;;;;;;;;;20.10;80.70;;;;;;5093530;28;19952;-91
2022/05/16 05:26:46;;;;;;;;;;;20.10;80.50;;;;;;5089126;28;19958;-90
2022/05/16 05:29:12;;;;;;;;;;;20.20;80.10;;;;;;5089664;28;19917;-91
2022/05/16 05:31:39;;;;;;;;;;;20.30;80.00;;;;;;5089653;28;20504;-91
2022/05/16 05:34:05;;;;;;;;;;;20.40;79.60;;;;;;5089876;28;20003;-91
2022/05/16 05:36:31;;;;;;;;;;;20.40;79.30;;;;;;5089601;28;19963;-91
2022/05/16 05:38:58;;;;;;;;;;;20.50;79.30;;;;;;5088927;28;19946;-91
2022/05/16 05:41:23;;;;;;;;;;;20.60;79.10;;;;;;5089462;28;19952;-91
2022/05/16 05:43:49;;;;;;;;;;;20.60;78.90;;;;;;5088121;28;19908;-90
2022/05/16 05:46:16;;;;;;;;;;;20.70;78.80;;;;;;5090169;28;20006;-90
2022/05/16 05:48:42;;;;;;;;;;;20.80;78.50;;;;;;5091646;28;19916;-91
2022/05/16 05:51:07;;;;;;;;;;;20.80;78.30;;;;;;5092646;28;19987;-90
2022/05/16 05:53:33;;;;;;;;;;;20.80;78.00;;;;;;5100003;28;19995;-91
2022/05/16 05:55:58;;;;;;;;;;;20.90;78.10;;;;;;5091412;28;20014;-91
2022/05/16 05:58:24;;;;;;;;;;;21.00;77.80;;;;;;5088543;28;20291;-91
2022/05/16 06:00:50;;;;;;;;;;;21.00;77.80;;;;;;5088214;28;20003;-90
2022/05/16 06:03:15;;;;;;;;;;;21.10;77.70;;;;;;5076463;28;19964;-91
2022/05/16 06:05:41;;;;;;;;;;;21.20;77.60;;;;;;5073073;28;20368;-91
2022/05/16 06:08:06;;;;;;;;;;;21.30;77.70;;;;;;5074895;28;19945;-91
2022/05/16 06:10:32;;;;;;;;;;;21.30;77.20;;;;;;5074328;28;19916;-91
2022/05/16 06:12:59;;;;;;;;;;;21.50;76.60;;;;;;5072410;28;19949;-91
2022/05/16 06:15:25;;;;;;;;;;;21.60;76.50;;;;;;5074909;28;20410;-91
2022/05/16 06:17:50;;;;;;;;;;;21.70;76.40;;;;;;5074115;28;19967;-90
2022/05/16 06:20:16;;;;;;;;;;;21.80;76.10;;;;;;5074325;28;20305;-91
2022/05/16 06:22:42;;;;;;;;;;;21.90;75.70;;;;;;5073110;28;20425;-91
2022/05/16 06:27:53;;;;;;;;;;;22.10;75.10;;;;;;5067565;28;20368;-91
2022/05/16 06:30:19;;;;;;;;;;;22.20;74.80;;;;;;5072872;28;20051;-91
2022/05/16 06:32:48;;;;;;;;;;;22.30;74.50;;;;;;5071611;28;19944;-92
2022/05/16 06:35:34;;;;;;;;;;;22.30;74.20;;;;;;5145845;27;20395;-92
2022/05/16 06:46:33;;;;;;;;;;;22.40;73.50;;;;;;5139448;27;20399;-90
2022/05/16 06:48:59;;;;;;;;;;;22.80;74.40;;;;;;5124849;28;20006;-90
2022/05/16 06:51:24;;;;;;;;;;;22.90;72.40;;;;;;5118686;28;20017;-90
2022/05/16 06:53:51;;;;;;;;;;;23.00;71.50;;;;;;5125873;28;19943;-91
2022/05/16 06:56:17;;;;;;;;;;;23.20;71.20;;;;;;5124514;28;19953;-91
2022/05/16 06:58:42;;;;;;;;;;;23.20;69.60;;;;;;5125044;28;19970;-91
2022/05/16 07:01:08;;;;;;;;;;;23.30;69.90;;;;;;5127509;28;19965;-91
2022/05/16 07:03:33;;;;;;;;;;;23.40;70.00;;;;;;5121212;28;19919;-91
2022/05/16 07:05:59;;;;;;;;;;;23.50;70.80;;;;;;5128499;28;19912;-91
2022/05/16 07:08:25;;;;;;;;;;;23.70;69.50;;;;;;5126278;28;19962;-91
2022/05/16 07:10:51;;;;;;;;;;;23.80;68.90;;;;;;5123048;28;19949;-91
2022/05/16 07:13:17;;;;;;;;;;;24.00;68.40;;;;;;5121353;28;19912;-91
2022/05/16 07:15:43;;;;;;;;;;;24.10;69.10;;;;;;5119040;28;19919;-91
2022/05/16 07:18:08;;;;;;;;;;;24.20;69.40;;;;;;5118721;28;19926;-91
2022/05/16 07:20:35;;;;;;;;;;;24.20;70.20;;;;;;5125888;28;19911;-91
2022/05/16 07:23:01;;;;;;;;;;;24.20;70.80;;;;;;5123889;28;20006;-90
2022/05/16 07:25:27;;;;;;;;;;;24.30;70.70;;;;;;5111377;28;20433;-90
2022/05/16 07:27:56;;;;;;;;;;;24.20;70.90;;;;;;5107526;28;19912;-91
2022/05/16 07:30:23;;;;;;;;;;;24.20;70.40;;;;;;5096936;28;19912;-91
2022/05/16 07:32:48;;;;;;;;;;;24.20;70.50;;;;;;5087570;28;19915;-91
2022/05/16 07:35:17;;;;;;;;;;;24.20;71.00;;;;;;5108981;28;19946;-91
2022/05/16 07:37:44;;;;;;;;;;;24.20;71.60;;;;;;5108844;28;20369;-90
2022/05/16 07:40:11;;;;;;;;;;;24.20;72.90;;;;;;5097729;28;20354;-90
2022/05/16 07:42:36;;;;;;;;;;;24.20;72.90;;;;;;5098212;28;19973;-91
2022/05/16 07:45:03;;;;;;;;;;;24.20;72.70;;;;;;5090337;28;20366;-90
2022/05/16 07:47:30;;;;;;;;;;;24.20;72.60;;;;;;5079766;28;20018;-90
2022/05/16 07:49:56;;;;;;;;;;;24.30;71.50;;;;;;5085928;28;19937;-90
2022/05/16 07:52:22;;;;;;;;;;;24.30;71.30;;;;;;5071173;28;19955;-91
2022/05/16 07:54:48;;;;;;;;;;;24.50;72.10;;;;;;5085661;28;19912;-90
2022/05/16 07:57:13;;;;;;;;;;;24.50;70.70;;;;;;5073759;28;19913;-91
2022/05/16 08:01:59;;;;;;;;;;;24.50;70.60;;;;;;5106122;27;19916;-90
2022/05/16 08:04:24;;;;;;;;;;;24.60;70.10;;;;;;5107531;28;20395;-91
2022/05/16 08:06:50;;;;;;;;;;;24.60;70.80;;;;;;5101671;28;20120;-90
2022/05/16 08:11:59;;;;;;;;;;;24.70;71.10;;;;;;5106504;28;20335;-91
2022/05/16 08:14:26;;;;;;;;;;;24.70;70.40;;;;;;5104935;28;19913;-90
2022/05/16 08:16:51;;;;;;;;;;;24.80;69.10;;;;;;5096197;28;20011;-91
2022/05/16 08:19:17;;;;;;;;;;;24.90;68.90;;;;;;5110769;28;20336;-91
2022/05/16 08:21:43;;;;;;;;;;;24.90;69.20;;;;;;5100624;28;19916;-91
2022/05/16 08:24:11;;;;;;;;;;;25.00;69.60;;;;;;5100506;28;20404;-91
2022/05/16 08:26:37;;;;;;;;;;;25.00;68.50;;;;;;5105511;28;19974;-90
2022/05/16 08:29:02;;;;;;;;;;;24.90;68.00;;;;;;5105023;28;19926;-90
2022/05/16 08:31:28;;;;;;;;;;;25.00;70.00;;;;;;5110284;28;20006;-90
2022/05/16 08:35:23;;;;;;;;;;;25.00;68.50;;;;;;5105750;27;20154;-91
2022/05/16 08:40:55;;;;;;;;;;;25.20;66.30;;;;;;5110841;27;20292;-90
2022/05/16 08:43:30;;;;;;;;;;;25.30;65.50;;;;;;5105206;28;19912;-91
2022/05/16 08:46:02;;;;;;;;;;;25.30;64.30;;;;;;5099856;28;19919;-91
2022/05/16 08:48:32;;;;;;;;;;;25.30;64.80;;;;;;5099404;28;19958;-91
2022/05/16 08:51:04;;;;;;;;;;;25.30;64.00;;;;;;5110360;28;20285;-91
2022/05/16 08:53:32;;;;;;;;;;;25.30;67.50;;;;;;5110403;28;19919;-91
2022/05/16 08:56:00;;;;;;;;;;;25.30;65.00;;;;;;5110795;28;19943;-92
2022/05/16 08:58:34;;;;;;;;;;;25.30;65.70;;;;;;5110507;28;20307;-91
2022/05/16 09:01:01;;;;;;;;;;;25.40;67.60;;;;;;5110297;28;19912;-92
2022/05/16 09:03:34;;;;;;;;;;;25.50;67.80;;;;;;5110181;28;19912;-92
2022/05/16 09:06:02;;;;;;;;;;;25.60;65.40;;;;;;5110740;28;19931;-91
2022/05/16 09:08:35;;;;;;;;;;;25.60;66.20;;;;;;5110768;28;19908;-91
2022/05/16 09:11:04;;;;;;;;;;;25.60;65.30;;;;;;5110709;28;19915;-91
2022/05/16 09:13:35;;;;;;;;;;;25.60;64.70;;;;;;5108911;28;19999;-91
2022/05/16 09:16:01;;;;;;;;;;;25.50;64.40;;;;;;5110517;28;19927;-91
2022/05/16 09:19:02;;;;;;;;;;;25.60;66.20;;;;;;5109775;28;19982;-92
2022/05/16 09:21:42;;;;;;;;;;;25.70;66.70;;;;;;5084310;28;19913;-91
2022/05/16 09:24:11;;;;;;;;;;;25.80;66.20;;;;;;5085932;28;20313;-92
2022/05/16 09:26:49;;;;;;;;;;;25.80;66.40;;;;;;5069690;28;20074;-92
2022/05/16 09:29:15;;;;;;;;;;;25.90;67.30;;;;;;5084923;28;20443;-92
2022/05/16 09:31:43;;;;;;;;;;;26.00;65.10;;;;;;5089893;28;19913;-91
2022/05/16 09:34:09;;;;;;;;;;;26.00;65.60;;;;;;5089677;28;19916;-91
2022/05/16 09:36:40;;;;;;;;;;;26.00;65.70;;;;;;5089718;28;19992;-91
2022/05/16 09:39:06;;;;;;;;;;;26.00;65.50;;;;;;5089155;28;19927;-91
2022/05/16 09:41:35;;;;;;;;;;;26.00;65.80;;;;;;5079901;28;20006;-91
2022/05/16 09:44:04;;;;;;;;;;;26.00;65.40;;;;;;5089529;28;19967;-91
2022/05/16 09:46:31;;;;;;;;;;;26.20;66.40;;;;;;5088298;28;20353;-91
2022/05/16 09:49:10;;;;;;;;;;;26.30;65.10;;;;;;5089359;28;20011;-90
2022/05/16 09:51:47;;;;;;;;;;;26.40;64.60;;;;;;5068548;28;19948;-91
2022/05/16 09:54:32;;;;;;;;;;;26.50;65.40;;;;;;5070337;28;20082;-91
2022/05/16 09:57:01;;;;;;;;;;;26.70;63.80;;;;;;5075895;28;19962;-91
2022/05/16 09:59:42;;;;;;;;;;;26.70;62.90;;;;;;5075570;28;19912;-91
2022/05/16 10:02:20;;;;;;;;;;;26.90;63.20;;;;;;5074481;28;19908;-91
2022/05/16 10:04:46;;;;;;;;;;;27.00;63.00;;;;;;5072674;28;19920;-91
2022/05/16 10:07:13;;;;;;;;;;;27.10;62.40;;;;;;5074586;28;19968;-91
2022/05/16 10:09:49;;;;;;;;;;;27.20;61.20;;;;;;5069647;28;19917;-92
2022/05/16 10:12:17;;;;;;;;;;;27.20;61.90;;;;;;5070935;28;20384;-91
2022/05/16 10:14:42;;;;;;;;;;;27.30;60.80;;;;;;5056103;28;19952;-91
2022/05/16 10:19:46;;;;;;;;;;;27.30;58.70;;;;;;5111172;27;19912;-91
2022/05/16 10:22:16;;;;;;;;;;;27.30;60.30;;;;;;5111068;28;19912;-91
2022/05/16 10:24:44;;;;;;;;;;;27.40;59.40;;;;;;5090838;28;19908;-91
2022/05/16 10:27:11;;;;;;;;;;;27.40;59.30;;;;;;5090707;28;19908;-92
2022/05/16 10:29:38;;;;;;;;;;;27.50;57.70;;;;;;5090693;28;19909;-92
2022/05/16 10:35:07;;;;;;;;;;;27.80;59.50;;;;;;5090785;28;20270;-91
2022/05/16 10:37:35;;;;;;;;;;;28.00;56.40;;;;;;5123006;28;19965;-91
2022/05/16 10:40:09;;;;;;;;;;;27.90;58.10;;;;;;5090018;28;19952;-91
2022/05/16 10:42:44;;;;;;;;;;;28.00;58.60;;;;;;5090385;28;20366;-91
2022/05/16 10:45:18;;;;;;;;;;;28.30;59.00;;;;;;5090382;28;19958;-91
2022/05/16 10:47:46;;;;;;;;;;;28.20;56.90;;;;;;5090314;28;19963;-91
2022/05/16 10:50:18;;;;;;;;;;;28.20;56.70;;;;;;5090165;28;19908;-91
2022/05/16 10:52:50;;;;;;;;;;;28.40;58.70;;;;;;5090260;28;19970;-91
2022/05/16 10:55:16;;;;;;;;;;;28.40;56.70;;;;;;5090164;28;19908;-91
2022/05/16 10:57:42;;;;;;;;;;;28.20;56.90;;;;;;5090301;28;20258;-91
2022/05/16 11:00:09;;;;;;;;;;;28.30;58.10;;;;;;5089992;28;19919;-92
2022/05/16 11:02:53;;;;;;;;;;;28.60;58.40;;;;;;5090012;28;19978;-91
2022/05/16 11:05:42;;;;;;;;;;;28.70;58.60;;;;;;5090240;28;19923;-92
2022/05/16 11:08:09;;;;;;;;;;;28.90;57.50;;;;;;5088604;28;19991;-92
2022/05/16 11:10:38;;;;;;;;;;;29.20;54.90;;;;;;5098886;28;19916;-91
2022/05/16 11:13:20;;;;;;;;;;;29.30;53.30;;;;;;5102770;28;19912;-91
2022/05/16 11:15:53;;;;;;;;;;;29.40;53.70;;;;;;5110170;28;19908;-91
2022/05/16 11:18:34;;;;;;;;;;;29.60;53.50;;;;;;5109771;28;19920;-91
2022/05/16 11:21:24;;;;;;;;;;;29.70;54.10;;;;;;5096542;28;19922;-91
2022/05/16 11:24:10;;;;;;;;;;;30.00;55.10;;;;;;5090227;28;19966;-91
2022/05/16 11:26:41;;;;;;;;;;;29.90;51.00;;;;;;5100818;28;19934;-91
2022/05/16 11:29:30;;;;;;;;;;;29.70;51.90;;;;;;5104822;28;19912;-92
2022/05/16 11:32:14;;;;;;;;;;;29.50;49.70;;;;;;5085895;28;19943;-91
2022/05/16 11:34:42;;;;;;;;;;;29.20;50.80;;;;;;5081197;28;19924;-91
2022/05/16 11:37:23;;;;;;;;;;;29.10;52.00;;;;;;5091669;28;19930;-91
2022/05/16 11:40:09;;;;;;;;;;;29.00;51.90;;;;;;5078118;28;20400;-91
2022/05/16 11:43:07;;;;;;;;;;;29.00;53.10;;;;;;5076339;28;19917;-91
2022/05/16 11:45:32;;;;;;;;;;;29.20;51.80;;;;;;5052256;28;19908;-91
2022/05/16 11:48:20;;;;;;;;;;;29.40;51.00;;;;;;5075548;28;19913;-92
2022/05/16 11:50:46;;;;;;;;;;;29.80;50.50;;;;;;5077458;28;19952;-92
2022/05/16 11:53:30;;;;;;;;;;;29.90;49.90;;;;;;5091060;28;19950;-91
2022/05/16 12:01:27;;;;;;;;;;;30.20;49.10;;;;;;5064477;28;19927;-91
2022/05/16 12:04:13;;;;;;;;;;;30.40;50.80;;;;;;5076692;28;20002;-91
2022/05/16 12:06:48;;;;;;;;;;;30.20;48.20;;;;;;5077002;28;19912;-91
2022/05/16 12:09:20;;;;;;;;;;;30.20;51.10;;;;;;5075101;28;19999;-91
2022/05/16 12:11:55;;;;;;;;;;;30.70;47.80;;;;;;5077003;28;19912;-91
2022/05/16 12:14:23;;;;;;;;;;;30.80;50.80;;;;;;5078610;28;19913;-91
2022/05/16 12:16:56;;;;;;;;;;;30.90;47.20;;;;;;5075310;28;19928;-91
2022/05/16 12:19:21;;;;;;;;;;;30.70;47.60;;;;;;5074821;28;19924;-91
2022/05/16 12:21:55;;;;;;;;;;;30.70;48.50;;;;;;5075003;28;19991;-91
2022/05/16 12:24:24;;;;;;;;;;;30.20;47.60;;;;;;5074830;28;19909;-91
2022/05/16 12:27:02;;;;;;;;;;;30.30;49.10;;;;;;5074923;28;19908;-91
2022/05/16 12:29:47;;;;;;;;;;;30.70;46.40;;;;;;5074460;28;20478;-91
2022/05/16 12:32:31;;;;;;;;;;;30.70;45.40;;;;;;5075519;28;19912;-92
2022/05/16 12:35:04;;;;;;;;;;;31.00;45.40;;;;;;5079601;28;19912;-91
2022/05/16 12:37:31;;;;;;;;;;;31.10;46.30;;;;;;5075558;28;19926;-92
2022/05/16 12:40:06;;;;;;;;;;;31.20;45.10;;;;;;5073607;28;20007;-92
2022/05/16 12:42:35;;;;;;;;;;;31.20;45.30;;;;;;5072970;28;19999;-92
2022/05/16 12:45:02;;;;;;;;;;;30.90;45.40;;;;;;5085015;28;19912;-92
2022/05/16 12:47:30;;;;;;;;;;;31.20;44.30;;;;;;5094770;28;19912;-92
2022/05/16 12:50:02;;;;;;;;;;;31.50;44.10;;;;;;5084440;28;19920;-92
2022/05/16 12:52:55;;;;;;;;;;;31.40;44.30;;;;;;5075206;28;19916;-91
2022/05/16 12:55:44;;;;;;;;;;;31.80;42.60;;;;;;5074275;28;20297;-92
2022/05/16 12:58:25;;;;;;;;;;;32.00;42.10;;;;;;5068842;28;19925;-92
2022/05/16 13:00:50;;;;;;;;;;;32.20;42.80;;;;;;5103496;27;19956;-92
2022/05/16 13:03:23;;;;;;;;;;;32.90;39.90;;;;;;5072888;28;20013;-91
2022/05/16 13:06:02;;;;;;;;;;;33.10;38.10;;;;;;5077378;28;19998;-91
2022/05/16 13:08:30;;;;;;;;;;;32.50;41.20;;;;;;5075538;28;19921;-91
2022/05/16 13:11:14;;;;;;;;;;;32.60;40.30;;;;;;5069359;28;19920;-91
2022/05/16 13:13:56;;;;;;;;;;;32.40;41.00;;;;;;5074904;28;19982;-91
2022/05/16 13:16:24;;;;;;;;;;;31.70;42.20;;;;;;5079471;28;19963;-90
2022/05/16 13:19:00;;;;;;;;;;;31.40;43.40;;;;;;5079771;28;20381;-90
2022/05/16 13:21:33;;;;;;;;;;;31.10;43.80;;;;;;5080031;28;20373;-91
2022/05/16 13:23:58;;;;;;;;;;;31.40;43.90;;;;;;5064770;28;19962;-91
2022/05/16 13:29:21;;;;;;;;;;;32.90;40.50;;;;;;5084367;28;19927;-91
2022/05/16 13:31:48;;;;;;;;;;;33.30;38.30;;;;;;5064716;28;19997;-91
2022/05/16 13:34:14;;;;;;;;;;;33.40;35.80;;;;;;5073834;28;19912;-92
2022/05/16 13:36:46;;;;;;;;;;;33.40;37.00;;;;;;5074003;28;19912;-92
2022/05/16 13:39:13;;;;;;;;;;;33.10;38.50;;;;;;5072054;28;20443;-91
2022/05/16 13:41:39;;;;;;;;;;;32.20;39.50;;;;;;5085128;28;19912;-91
2022/05/16 13:44:09;;;;;;;;;;;31.50;40.40;;;;;;5081969;28;19957;-91
2022/05/16 13:46:35;;;;;;;;;;;31.70;40.10;;;;;;5075005;28;19924;-92
2022/05/16 13:49:04;;;;;;;;;;;32.90;38.80;;;;;;5077941;28;19913;-92
2022/05/16 13:51:30;;;;;;;;;;;32.80;38.50;;;;;;5079379;28;19912;-91
2022/05/16 13:53:56;;;;;;;;;;;32.10;39.20;;;;;;5076269;28;19920;-91
2022/05/16 13:56:35;;;;;;;;;;;31.60;41.50;;;;;;5085993;28;19936;-91
2022/05/16 13:59:01;;;;;;;;;;;31.80;40.20;;;;;;5070471;28;20054;-92
2022/05/16 14:01:26;;;;;;;;;;;32.70;37.80;;;;;;5066433;28;19999;-91
2022/05/16 14:03:59;;;;;;;;;;;33.30;40.00;;;;;;5075654;28;20398;-91
2022/05/16 14:06:30;;;;;;;;;;;33.80;37.80;;;;;;5072765;28;19920;-91
2022/05/16 14:08:59;;;;;;;;;;;33.70;36.50;;;;;;5069699;28;20370;-91
2022/05/16 14:11:26;;;;;;;;;;;33.50;38.30;;;;;;5069105;28;20126;-92
2022/05/16 14:13:54;;;;;;;;;;;32.70;38.60;;;;;;5057102;28;20470;-92
2022/05/16 14:16:30;;;;;;;;;;;33.00;37.70;;;;;;5064804;28;19974;-92
2022/05/16 14:19:14;;;;;;;;;;;32.90;38.90;;;;;;5077467;28;19920;-91
2022/05/16 14:21:45;;;;;;;;;;;32.60;38.60;;;;;;5076762;28;19912;-91
2022/05/16 14:24:11;;;;;;;;;;;32.60;38.90;;;;;;5064896;28;20061;-92
2022/05/16 14:26:40;;;;;;;;;;;32.70;39.30;;;;;;5065045;28;20390;-92
2022/05/16 14:29:14;;;;;;;;;;;32.70;38.20;;;;;;5082948;28;19919;-92
2022/05/16 14:32:02;;;;;;;;;;;32.80;38.20;;;;;;5071468;28;19916;-92
2022/05/16 14:34:31;;;;;;;;;;;32.80;39.10;;;;;;5052113;28;19917;-92
2022/05/16 14:37:25;;;;;;;;;;;33.10;38.80;;;;;;5069737;28;19920;-92
2022/05/16 14:39:53;;;;;;;;;;;33.20;39.20;;;;;;5065986;28;19916;-92
2022/05/16 14:42:19;;;;;;;;;;;33.40;38.90;;;;;;5080347;28;19919;-91
2022/05/16 14:44:55;;;;;;;;;;;33.80;36.30;;;;;;5063792;28;20000;-91
2022/05/16 14:47:25;;;;;;;;;;;33.70;35.40;;;;;;5085525;28;20422;-92
2022/05/16 14:49:51;;;;;;;;;;;33.30;38.60;;;;;;5061836;28;19957;-91
2022/05/16 14:52:22;;;;;;;;;;;33.10;36.60;;;;;;5070696;28;19919;-91
2022/05/16 14:55:09;;;;;;;;;;;32.60;37.10;;;;;;5061846;28;19920;-91
2022/05/16 14:57:35;;;;;;;;;;;32.30;37.20;;;;;;5058066;28;19920;-91
2022/05/16 15:00:01;;;;;;;;;;;32.20;37.90;;;;;;5065276;28;19912;-91
2022/05/16 15:05:12;;;;;;;;;;;32.70;36.50;;;;;;5079593;28;20318;-92
2022/05/16 15:07:41;;;;;;;;;;;33.40;37.60;;;;;;5078487;28;20361;-92
2022/05/16 15:10:09;;;;;;;;;;;33.70;38.40;;;;;;5082227;28;19937;-92
2022/05/16 15:12:35;;;;;;;;;;;33.20;35.90;;;;;;5070284;28;19921;-91
2022/05/16 15:15:02;;;;;;;;;;;32.20;39.20;;;;;;5073114;28;20365;-92
2022/05/16 15:17:28;;;;;;;;;;;31.80;40.40;;;;;;5085199;28;19915;-91
2022/05/16 15:19:53;;;;;;;;;;;31.60;39.50;;;;;;5071717;28;20003;-91
2022/05/16 15:22:19;;;;;;;;;;;31.00;41.60;;;;;;5083677;28;19938;-91
2022/05/16 15:24:52;;;;;;;;;;;30.70;42.10;;;;;;5069988;28;19955;-91
2022/05/16 15:27:17;;;;;;;;;;;30.70;42.90;;;;;;5067652;28;19913;-92